sensor_id;sensor_type;location;lat;lon;timestamp;temperature;humidity
25280;DHT22;13225;47.804;12.116;2022-11-12T00:00:38;4.30;99.90
25280;DHT22;13225;47.804;12.116;2022-11-12T00:03:04;4.20;99.90
25280;DHT22;13225;47.804;12.116;2022-11-12T00:05:31;4.10;99.90
25280;DHT22;13225;47.804;12.116;2022-11-12T00:07:57;4.10;99.90
25280;DHT22;13225;47.804;12.116;2022-11-12T00:10:22;4.20;99.90
25280;DHT22;13225;47.804;12.116;2022-11-12T00:12:48;4.40;99.90
25280;DHT22;13225;47.804;12.116;2022-11-12T00:15:14;4.50;99.90
25280;DHT22;13225;47.804;12.116;2022-11-12T00:17:40;4.60;99.90
25280;DHT22;13225;47.804;12.116;2022-11-12T00:20:06;4.60;99.90
25280;DHT22;13225;47.804;12.116;2022-11-12T00:22:32;4.70;99.90
25280;DHT22;13225;47.804;12.116;2022-11-12T00:24:58;4.80;99.90
25280;DHT22;13225;47.804;12.116;2022-11-12T00:27:23;4.80;99.90
25280;DHT22;13225;47.804;12.116;2022-11-12T00:29:49;4.90;99.90
25280;DHT22;13225;47.804;12.116;2022-11-12T00:32:14;4.90;99.90
25280;DHT22;13225;47.804;12.116;2022-11-12T00:34:41;5.00;99.90
25280;DHT22;13225;47.804;12.116;2022-11-12T00:37:07;5.10;99.90
25280;DHT22;13225;47.804;12.116;2022-11-12T00:39:33;5.20;99.90
25280;DHT22;13225;47.804;12.116;2022-11-12T00:41:58;5.20;99.90
25280;DHT22;13225;47.804;12.116;2022-11-12T00:44:24;5.20;99.90
25280;DHT22;13225;47.804;12.116;2022-11-12T00:46:50;5.10;99.90
25280;DHT22;13225;47.804;12.116;2022-11-12T00:49:15;5.00;99.90
25280;DHT22;13225;47.804;12.116;2022-11-12T00:51:42;4.90;99.90
25280;DHT22;13225;47.804;12.116;2022-11-12T00:54:07;4.80;99.90
25280;DHT22;13225;47.804;12.116;2022-11-12T00:56:33;4.70;99.90
25280;DHT22;13225;47.804;12.116;2022-11-12T00:58:59;4.70;99.90
25280;DHT22;13225;47.804;12.116;2022-11-12T01:01:25;4.60;99.90
25280;DHT22;13225;47.804;12.116;2022-11-12T01:03:51;4.50;99.90
25280;DHT22;13225;47.804;12.116;2022-11-12T01:06:20;4.50;99.90
25280;DHT22;13225;47.804;12.116;2022-11-12T01:08:46;4.40;99.90
25280;DHT22;13225;47.804;12.116;2022-11-12T01:11:23;4.30;99.90
25280;DHT22;13225;47.804;12.116;2022-11-12T01:14:04;4.30;99.90
25280;DHT22;13225;47.804;12.116;2022-11-12T01:16:38;4.30;99.90
25280;DHT22;13225;47.804;12.116;2022-11-12T01:19:05;4.40;99.90
25280;DHT22;13225;47.804;12.116;2022-11-12T01:21:32;4.40;99.90
25280;DHT22;13225;47.804;12.116;2022-11-12T01:23:59;4.40;99.90
25280;DHT22;13225;47.804;12.116;2022-11-12T01:26:25;4.50;99.90
25280;DHT22;13225;47.804;12.116;2022-11-12T01:28:53;4.50;99.90
25280;DHT22;13225;47.804;12.116;2022-11-12T01:31:22;4.50;99.90
25280;DHT22;13225;47.804;12.116;2022-11-12T01:33:51;4.60;99.90
25280;DHT22;13225;47.804;12.116;2022-11-12T01:36:17;4.60;99.90
25280;DHT22;13225;47.804;12.116;2022-11-12T01:38:44;4.60;99.90
25280;DHT22;13225;47.804;12.116;2022-11-12T01:41:16;4.50;99.90
25280;DHT22;13225;47.804;12.116;2022-11-12T01:43:43;4.60;99.90
25280;DHT22;13225;47.804;12.116;2022-11-12T01:46:17;4.60;99.90
25280;DHT22;13225;47.804;12.116;2022-11-12T01:48:54;4.60;99.90
25280;DHT22;13225;47.804;12.116;2022-11-12T01:51:22;4.60;99.90
25280;DHT22;13225;47.804;12.116;2022-11-12T01:53:51;4.60;99.90
25280;DHT22;13225;47.804;12.116;2022-11-12T01:56:19;4.60;99.90
25280;DHT22;13225;47.804;12.116;2022-11-12T01:58:48;4.60;99.90
25280;DHT22;13225;47.804;12.116;2022-11-12T02:01:15;4.60;99.90
25280;DHT22;13225;47.804;12.116;2022-11-12T02:03:41;4.60;99.90
25280;DHT22;13225;47.804;12.116;2022-11-12T02:06:09;4.60;99.90
25280;DHT22;13225;47.804;12.116;2022-11-12T02:08:36;4.60;99.90
25280;DHT22;13225;47.804;12.116;2022-11-12T02:11:15;4.70;99.90
25280;DHT22;13225;47.804;12.116;2022-11-12T02:13:42;4.70;99.90
25280;DHT22;13225;47.804;12.116;2022-11-12T02:16:44;4.60;99.90
25280;DHT22;13225;47.804;12.116;2022-11-12T02:19:14;4.60;99.90
25280;DHT22;13225;47.804;12.116;2022-11-12T02:21:41;4.50;99.90
25280;DHT22;13225;47.804;12.116;2022-11-12T02:26:43;4.50;99.90
25280;DHT22;13225;47.804;12.116;2022-11-12T02:29:10;4.50;99.90
25280;DHT22;13225;47.804;12.116;2022-11-12T02:31:36;4.40;99.90
25280;DHT22;13225;47.804;12.116;2022-11-12T02:34:02;4.40;99.90
25280;DHT22;13225;47.804;12.116;2022-11-12T02:36:28;4.40;99.90
25280;DHT22;13225;47.804;12.116;2022-11-12T02:38:54;4.40;99.90
25280;DHT22;13225;47.804;12.116;2022-11-12T02:41:20;4.40;99.90
25280;DHT22;13225;47.804;12.116;2022-11-12T02:43:46;4.40;99.90
25280;DHT22;13225;47.804;12.116;2022-11-12T02:46:12;4.40;99.90
25280;DHT22;13225;47.804;12.116;2022-11-12T02:48:37;4.40;99.90
25280;DHT22;13225;47.804;12.116;2022-11-12T02:51:04;4.40;99.90
25280;DHT22;13225;47.804;12.116;2022-11-12T02:53:29;4.30;99.90
25280;DHT22;13225;47.804;12.116;2022-11-12T02:55:59;4.30;99.90
25280;DHT22;13225;47.804;12.116;2022-11-12T02:58:25;4.30;99.90
25280;DHT22;13225;47.804;12.116;2022-11-12T03:00:55;4.30;99.90
25280;DHT22;13225;47.804;12.116;2022-11-12T03:03:21;4.30;99.90
25280;DHT22;13225;47.804;12.116;2022-11-12T03:05:57;4.30;99.90
25280;DHT22;13225;47.804;12.116;2022-11-12T03:08:24;4.20;99.90
25280;DHT22;13225;47.804;12.116;2022-11-12T03:10:50;4.20;99.90
25280;DHT22;13225;47.804;12.116;2022-11-12T03:13:15;4.20;99.90
25280;DHT22;13225;47.804;12.116;2022-11-12T03:15:41;4.10;99.90
25280;DHT22;13225;47.804;12.116;2022-11-12T03:18:06;4.20;99.90
25280;DHT22;13225;47.804;12.116;2022-11-12T03:20:32;4.10;99.90
25280;DHT22;13225;47.804;12.116;2022-11-12T03:23:07;4.20;99.90
25280;DHT22;13225;47.804;12.116;2022-11-12T03:25:34;4.30;99.90
25280;DHT22;13225;47.804;12.116;2022-11-12T03:28:08;4.30;99.90
25280;DHT22;13225;47.804;12.116;2022-11-12T03:30:37;4.30;99.90
25280;DHT22;13225;47.804;12.116;2022-11-12T03:33:03;4.30;99.90
25280;DHT22;13225;47.804;12.116;2022-11-12T03:35:29;4.20;99.90
25280;DHT22;13225;47.804;12.116;2022-11-12T03:37:55;4.10;99.90
25280;DHT22;13225;47.804;12.116;2022-11-12T03:40:21;4.10;99.90
25280;DHT22;13225;47.804;12.116;2022-11-12T03:42:48;4.10;99.90
25280;DHT22;13225;47.804;12.116;2022-11-12T03:45:15;4.10;99.90
25280;DHT22;13225;47.804;12.116;2022-11-12T03:47:47;4.10;99.90
25280;DHT22;13225;47.804;12.116;2022-11-12T03:50:14;4.10;99.90
25280;DHT22;13225;47.804;12.116;2022-11-12T03:52:44;4.00;99.90
25280;DHT22;13225;47.804;12.116;2022-11-12T03:55:11;4.00;99.90
25280;DHT22;13225;47.804;12.116;2022-11-12T03:57:41;4.00;99.90
25280;DHT22;13225;47.804;12.116;2022-11-12T04:00:08;4.00;99.90
25280;DHT22;13225;47.804;12.116;2022-11-12T04:02:35;3.90;99.90
25280;DHT22;13225;47.804;12.116;2022-11-12T04:05:04;3.80;99.90
25280;DHT22;13225;47.804;12.116;2022-11-12T04:07:56;3.80;99.90
25280;DHT22;13225;47.804;12.116;2022-11-12T04:10:40;3.70;99.90
25280;DHT22;13225;47.804;12.116;2022-11-12T04:13:06;3.70;99.90
25280;DHT22;13225;47.804;12.116;2022-11-12T04:15:50;3.80;99.90
25280;DHT22;13225;47.804;12.116;2022-11-12T04:18:36;3.90;99.90
25280;DHT22;13225;47.804;12.116;2022-11-12T04:21:20;3.90;99.90
25280;DHT22;13225;47.804;12.116;2022-11-12T04:24:05;3.90;99.90
25280;DHT22;13225;47.804;12.116;2022-11-12T04:26:31;3.90;99.90
25280;DHT22;13225;47.804;12.116;2022-11-12T04:28:56;3.90;99.90
25280;DHT22;13225;47.804;12.116;2022-11-12T04:31:40;3.80;99.90
25280;DHT22;13225;47.804;12.116;2022-11-12T04:34:06;3.70;99.90
25280;DHT22;13225;47.804;12.116;2022-11-12T04:36:50;3.60;99.90
25280;DHT22;13225;47.804;12.116;2022-11-12T04:39:15;3.60;99.90
25280;DHT22;13225;47.804;12.116;2022-11-12T04:41:41;3.50;99.90
25280;DHT22;13225;47.804;12.116;2022-11-12T04:44:25;3.60;99.90
25280;DHT22;13225;47.804;12.116;2022-11-12T04:47:09;3.50;99.90
25280;DHT22;13225;47.804;12.116;2022-11-12T04:49:35;3.40;99.90
25280;DHT22;13225;47.804;12.116;2022-11-12T04:52:00;3.40;99.90
25280;DHT22;13225;47.804;12.116;2022-11-12T04:54:32;3.40;99.90
25280;DHT22;13225;47.804;12.116;2022-11-12T04:56:59;3.40;99.90
25280;DHT22;13225;47.804;12.116;2022-11-12T04:59:24;3.30;99.90
25280;DHT22;13225;47.804;12.116;2022-11-12T05:01:50;3.20;99.90
25280;DHT22;13225;47.804;12.116;2022-11-12T05:04:16;3.30;99.90
25280;DHT22;13225;47.804;12.116;2022-11-12T05:06:42;3.30;99.90
25280;DHT22;13225;47.804;12.116;2022-11-12T05:09:22;3.40;99.90
25280;DHT22;13225;47.804;12.116;2022-11-12T05:11:48;3.40;99.90
25280;DHT22;13225;47.804;12.116;2022-11-12T05:14:14;3.40;99.90
25280;DHT22;13225;47.804;12.116;2022-11-12T05:16:40;3.40;99.90
25280;DHT22;13225;47.804;12.116;2022-11-12T05:19:06;3.30;99.90
25280;DHT22;13225;47.804;12.116;2022-11-12T05:21:31;3.30;99.90
25280;DHT22;13225;47.804;12.116;2022-11-12T05:24:15;3.30;99.90
25280;DHT22;13225;47.804;12.116;2022-11-12T05:26:41;3.20;99.90
25280;DHT22;13225;47.804;12.116;2022-11-12T05:29:07;3.00;99.90
25280;DHT22;13225;47.804;12.116;2022-11-12T05:31:33;2.70;99.90
25280;DHT22;13225;47.804;12.116;2022-11-12T05:33:58;2.50;99.90
25280;DHT22;13225;47.804;12.116;2022-11-12T05:36:27;2.50;99.90
25280;DHT22;13225;47.804;12.116;2022-11-12T05:38:52;2.50;99.90
25280;DHT22;13225;47.804;12.116;2022-11-12T05:41:18;2.50;99.90
25280;DHT22;13225;47.804;12.116;2022-11-12T05:43:44;2.50;99.90
25280;DHT22;13225;47.804;12.116;2022-11-12T05:46:10;2.50;99.90
25280;DHT22;13225;47.804;12.116;2022-11-12T05:48:35;2.70;99.90
25280;DHT22;13225;47.804;12.116;2022-11-12T05:51:01;2.80;99.90
25280;DHT22;13225;47.804;12.116;2022-11-12T05:53:26;2.90;99.90
25280;DHT22;13225;47.804;12.116;2022-11-12T05:55:52;2.90;99.90
25280;DHT22;13225;47.804;12.116;2022-11-12T05:58:17;3.00;99.90
25280;DHT22;13225;47.804;12.116;2022-11-12T06:00:43;3.10;99.90
25280;DHT22;13225;47.804;12.116;2022-11-12T06:03:10;3.20;99.90
25280;DHT22;13225;47.804;12.116;2022-11-12T06:05:37;3.40;99.90
25280;DHT22;13225;47.804;12.116;2022-11-12T06:08:04;3.60;99.90
25280;DHT22;13225;47.804;12.116;2022-11-12T06:10:31;3.70;99.90
25280;DHT22;13225;47.804;12.116;2022-11-12T06:12:59;3.70;99.90
25280;DHT22;13225;47.804;12.116;2022-11-12T06:15:25;3.90;99.90
25280;DHT22;13225;47.804;12.116;2022-11-12T06:17:53;3.90;99.90
25280;DHT22;13225;47.804;12.116;2022-11-12T06:20:20;3.90;99.90
25280;DHT22;13225;47.804;12.116;2022-11-12T06:22:46;3.80;99.90
25280;DHT22;13225;47.804;12.116;2022-11-12T06:25:12;3.70;99.90
25280;DHT22;13225;47.804;12.116;2022-11-12T06:27:38;3.70;99.90
25280;DHT22;13225;47.804;12.116;2022-11-12T06:30:04;3.40;99.90
25280;DHT22;13225;47.804;12.116;2022-11-12T06:32:30;2.90;99.90
25280;DHT22;13225;47.804;12.116;2022-11-12T06:34:56;2.80;99.90
25280;DHT22;13225;47.804;12.116;2022-11-12T06:37:22;2.70;99.90
25280;DHT22;13225;47.804;12.116;2022-11-12T06:39:47;2.60;99.90
25280;DHT22;13225;47.804;12.116;2022-11-12T06:42:14;2.50;99.90
25280;DHT22;13225;47.804;12.116;2022-11-12T06:44:39;2.40;99.90
25280;DHT22;13225;47.804;12.116;2022-11-12T06:47:05;2.40;99.90
25280;DHT22;13225;47.804;12.116;2022-11-12T06:49:31;2.30;99.90
25280;DHT22;13225;47.804;12.116;2022-11-12T06:51:56;2.30;99.90
25280;DHT22;13225;47.804;12.116;2022-11-12T06:54:22;2.40;99.90
25280;DHT22;13225;47.804;12.116;2022-11-12T06:56:48;2.50;99.90
25280;DHT22;13225;47.804;12.116;2022-11-12T06:59:13;2.40;99.90
25280;DHT22;13225;47.804;12.116;2022-11-12T07:01:42;2.40;99.90
25280;DHT22;13225;47.804;12.116;2022-11-12T07:04:08;2.50;99.90
25280;DHT22;13225;47.804;12.116;2022-11-12T07:06:36;2.50;99.90
25280;DHT22;13225;47.804;12.116;2022-11-12T07:09:02;2.50;99.90
25280;DHT22;13225;47.804;12.116;2022-11-12T07:11:28;2.60;99.90
25280;DHT22;13225;47.804;12.116;2022-11-12T07:13:54;2.60;99.90
25280;DHT22;13225;47.804;12.116;2022-11-12T07:16:20;2.70;99.90
25280;DHT22;13225;47.804;12.116;2022-11-12T07:18:47;2.70;99.90
25280;DHT22;13225;47.804;12.116;2022-11-12T07:21:19;2.80;99.90
25280;DHT22;13225;47.804;12.116;2022-11-12T07:23:45;2.80;99.90
25280;DHT22;13225;47.804;12.116;2022-11-12T07:26:13;2.80;99.90
25280;DHT22;13225;47.804;12.116;2022-11-12T07:28:39;2.90;99.90
25280;DHT22;13225;47.804;12.116;2022-11-12T07:31:10;3.00;99.90
25280;DHT22;13225;47.804;12.116;2022-11-12T07:33:36;3.00;99.90
25280;DHT22;13225;47.804;12.116;2022-11-12T07:36:10;3.10;99.90
25280;DHT22;13225;47.804;12.116;2022-11-12T07:38:39;3.20;99.90
25280;DHT22;13225;47.804;12.116;2022-11-12T07:41:16;3.30;99.90
25280;DHT22;13225;47.804;12.116;2022-11-12T07:43:44;3.30;99.90
25280;DHT22;13225;47.804;12.116;2022-11-12T07:46:14;3.40;99.90
25280;DHT22;13225;47.804;12.116;2022-11-12T07:48:40;3.50;99.90
25280;DHT22;13225;47.804;12.116;2022-11-12T07:51:11;3.60;99.90
25280;DHT22;13225;47.804;12.116;2022-11-12T07:53:45;3.70;99.90
25280;DHT22;13225;47.804;12.116;2022-11-12T07:56:12;3.70;99.90
25280;DHT22;13225;47.804;12.116;2022-11-12T07:58:38;3.70;99.90
25280;DHT22;13225;47.804;12.116;2022-11-12T08:01:32;3.70;99.90
25280;DHT22;13225;47.804;12.116;2022-11-12T08:04:00;3.80;99.90
25280;DHT22;13225;47.804;12.116;2022-11-12T08:06:27;3.80;99.90
25280;DHT22;13225;47.804;12.116;2022-11-12T08:08:54;3.90;99.90
25280;DHT22;13225;47.804;12.116;2022-11-12T08:11:21;4.00;99.90
25280;DHT22;13225;47.804;12.116;2022-11-12T08:13:48;4.00;99.90
25280;DHT22;13225;47.804;12.116;2022-11-12T08:16:14;4.10;99.90
25280;DHT22;13225;47.804;12.116;2022-11-12T08:18:40;4.10;99.90
25280;DHT22;13225;47.804;12.116;2022-11-12T08:21:08;4.10;99.90
25280;DHT22;13225;47.804;12.116;2022-11-12T08:23:34;4.20;99.90
25280;DHT22;13225;47.804;12.116;2022-11-12T08:26:04;4.20;99.90
25280;DHT22;13225;47.804;12.116;2022-11-12T08:28:32;4.30;99.90
25280;DHT22;13225;47.804;12.116;2022-11-12T08:31:05;4.50;99.90
25280;DHT22;13225;47.804;12.116;2022-11-12T08:33:33;4.50;99.90
25280;DHT22;13225;47.804;12.116;2022-11-12T08:36:08;4.60;99.90
25280;DHT22;13225;47.804;12.116;2022-11-12T08:38:36;4.80;99.90
25280;DHT22;13225;47.804;12.116;2022-11-12T08:41:04;4.80;99.90
25280;DHT22;13225;47.804;12.116;2022-11-12T08:43:30;5.00;99.90
25280;DHT22;13225;47.804;12.116;2022-11-12T08:46:00;5.10;99.90
25280;DHT22;13225;47.804;12.116;2022-11-12T08:48:27;5.20;99.90
25280;DHT22;13225;47.804;12.116;2022-11-12T08:50:53;5.30;99.90
25280;DHT22;13225;47.804;12.116;2022-11-12T08:53:21;5.40;99.90
25280;DHT22;13225;47.804;12.116;2022-11-12T08:55:46;5.50;99.90
25280;DHT22;13225;47.804;12.116;2022-11-12T08:58:12;5.60;99.90
25280;DHT22;13225;47.804;12.116;2022-11-12T09:00:42;5.70;99.90
25280;DHT22;13225;47.804;12.116;2022-11-12T09:03:14;5.80;99.90
25280;DHT22;13225;47.804;12.116;2022-11-12T09:05:40;5.90;99.90
25280;DHT22;13225;47.804;12.116;2022-11-12T09:08:10;6.00;99.90
25280;DHT22;13225;47.804;12.116;2022-11-12T09:10:37;6.10;99.90
25280;DHT22;13225;47.804;12.116;2022-11-12T09:13:03;6.20;99.90
25280;DHT22;13225;47.804;12.116;2022-11-12T09:15:30;6.40;99.90
25280;DHT22;13225;47.804;12.116;2022-11-12T09:17:56;6.60;99.90
25280;DHT22;13225;47.804;12.116;2022-11-12T09:20:24;6.80;99.90
25280;DHT22;13225;47.804;12.116;2022-11-12T09:22:50;7.00;99.90
25280;DHT22;13225;47.804;12.116;2022-11-12T09:25:16;7.30;99.90
25280;DHT22;13225;47.804;12.116;2022-11-12T09:27:41;7.50;99.90
25280;DHT22;13225;47.804;12.116;2022-11-12T09:30:07;7.60;99.90
25280;DHT22;13225;47.804;12.116;2022-11-12T09:32:37;7.70;99.90
25280;DHT22;13225;47.804;12.116;2022-11-12T09:35:03;7.80;99.90
25280;DHT22;13225;47.804;12.116;2022-11-12T09:37:28;7.90;99.90
25280;DHT22;13225;47.804;12.116;2022-11-12T09:39:54;8.00;99.90
25280;DHT22;13225;47.804;12.116;2022-11-12T09:42:21;8.10;99.90
25280;DHT22;13225;47.804;12.116;2022-11-12T09:45:19;8.10;99.90
25280;DHT22;13225;47.804;12.116;2022-11-12T09:47:51;8.30;99.90
25280;DHT22;13225;47.804;12.116;2022-11-12T09:52:48;8.70;99.90
25280;DHT22;13225;47.804;12.116;2022-11-12T09:55:31;8.80;99.90
25280;DHT22;13225;47.804;12.116;2022-11-12T09:57:58;8.90;99.90
25280;DHT22;13225;47.804;12.116;2022-11-12T10:00:24;9.00;99.90
25280;DHT22;13225;47.804;12.116;2022-11-12T10:03:13;9.10;99.90
25280;DHT22;13225;47.804;12.116;2022-11-12T10:08:31;9.30;99.90
25280;DHT22;13225;47.804;12.116;2022-11-12T10:17:43;9.60;99.90
25280;DHT22;13225;47.804;12.116;2022-11-12T10:25:41;9.70;99.90
25280;DHT22;13225;47.804;12.116;2022-11-12T10:30:51;9.80;99.90
25280;DHT22;13225;47.804;12.116;2022-11-12T10:33:18;10.00;99.90
25280;DHT22;13225;47.804;12.116;2022-11-12T10:35:43;10.20;99.90
25280;DHT22;13225;47.804;12.116;2022-11-12T10:38:16;10.20;99.90
25280;DHT22;13225;47.804;12.116;2022-11-12T10:40:47;10.30;99.90
25280;DHT22;13225;47.804;12.116;2022-11-12T10:45:44;10.30;99.90
25280;DHT22;13225;47.804;12.116;2022-11-12T10:50:47;10.40;99.90
25280;DHT22;13225;47.804;12.116;2022-11-12T10:53:13;10.40;99.90
25280;DHT22;13225;47.804;12.116;2022-11-12T10:55:57;10.50;99.90
25280;DHT22;13225;47.804;12.116;2022-11-12T10:58:23;10.60;99.90
25280;DHT22;13225;47.804;12.116;2022-11-12T11:01:01;10.70;99.90
25280;DHT22;13225;47.804;12.116;2022-11-12T11:03:44;10.70;99.90
25280;DHT22;13225;47.804;12.116;2022-11-12T11:08:44;10.90;99.90
25280;DHT22;13225;47.804;12.116;2022-11-12T11:11:29;11.10;99.90
25280;DHT22;13225;47.804;12.116;2022-11-12T11:13:58;11.30;99.90
25280;DHT22;13225;47.804;12.116;2022-11-12T11:16:59;11.40;99.90
25280;DHT22;13225;47.804;12.116;2022-11-12T11:19:36;11.40;99.90
25280;DHT22;13225;47.804;12.116;2022-11-12T11:27:37;11.70;99.90
25280;DHT22;13225;47.804;12.116;2022-11-12T11:30:16;11.80;99.90
25280;DHT22;13225;47.804;12.116;2022-11-12T11:33:38;12.00;99.90
25280;DHT22;13225;47.804;12.116;2022-11-12T11:46:26;12.20;99.90
25280;DHT22;13225;47.804;12.116;2022-11-12T11:49:00;12.20;99.90
25280;DHT22;13225;47.804;12.116;2022-11-12T11:52:15;12.30;99.90
25280;DHT22;13225;47.804;12.116;2022-11-12T11:57:58;12.50;99.90
25280;DHT22;13225;47.804;12.116;2022-11-12T12:00:35;12.70;99.90
25280;DHT22;13225;47.804;12.116;2022-11-12T12:03:23;12.70;99.90
25280;DHT22;13225;47.804;12.116;2022-11-12T12:08:46;12.80;99.90
25280;DHT22;13225;47.804;12.116;2022-11-12T12:11:22;12.80;99.90
25280;DHT22;13225;47.804;12.116;2022-11-12T12:22:14;12.90;99.90
25280;DHT22;13225;47.804;12.116;2022-11-12T12:27:15;13.40;99.90
25280;DHT22;13225;47.804;12.116;2022-11-12T12:29:47;13.60;99.90
25280;DHT22;13225;47.804;12.116;2022-11-12T12:32:24;13.70;99.90
25280;DHT22;13225;47.804;12.116;2022-11-12T12:35:18;13.60;99.90
25280;DHT22;13225;47.804;12.116;2022-11-12T12:37:56;13.50;99.90
25280;DHT22;13225;47.804;12.116;2022-11-12T12:40:43;13.30;99.90
25280;DHT22;13225;47.804;12.116;2022-11-12T12:43:26;13.20;99.90
25280;DHT22;13225;47.804;12.116;2022-11-12T12:45:56;13.20;99.90
25280;DHT22;13225;47.804;12.116;2022-11-12T12:48:39;13.20;99.90
25280;DHT22;13225;47.804;12.116;2022-11-12T12:51:06;13.10;99.90
25280;DHT22;13225;47.804;12.116;2022-11-12T12:53:34;13.10;99.90
25280;DHT22;13225;47.804;12.116;2022-11-12T12:56:05;13.00;99.90
25280;DHT22;13225;47.804;12.116;2022-11-12T12:58:44;12.90;99.90
25280;DHT22;13225;47.804;12.116;2022-11-12T13:09:19;12.60;99.90
25280;DHT22;13225;47.804;12.116;2022-11-12T13:11:52;12.60;99.90
25280;DHT22;13225;47.804;12.116;2022-11-12T13:17:09;12.50;99.90
25280;DHT22;13225;47.804;12.116;2022-11-12T13:40:25;12.40;99.90
25280;DHT22;13225;47.804;12.116;2022-11-12T13:48:52;12.30;99.90
25280;DHT22;13225;47.804;12.116;2022-11-12T13:51:49;12.40;99.90
25280;DHT22;13225;47.804;12.116;2022-11-12T13:54:30;12.60;99.90
25280;DHT22;13225;47.804;12.116;2022-11-12T13:57:12;12.80;99.90
25280;DHT22;13225;47.804;12.116;2022-11-12T13:59:37;12.80;99.90
25280;DHT22;13225;47.804;12.116;2022-11-12T14:02:09;12.80;99.90
25280;DHT22;13225;47.804;12.116;2022-11-12T14:04:47;12.70;99.90
25280;DHT22;13225;47.804;12.116;2022-11-12T14:09:51;12.50;99.90
25280;DHT22;13225;47.804;12.116;2022-11-12T14:18:19;12.10;99.90
25280;DHT22;13225;47.804;12.116;2022-11-12T14:20:49;12.10;99.90
25280;DHT22;13225;47.804;12.116;2022-11-12T14:23:19;12.20;99.90
25280;DHT22;13225;47.804;12.116;2022-11-12T14:28:32;12.10;99.90
25280;DHT22;13225;47.804;12.116;2022-11-12T14:31:00;12.00;99.90
25280;DHT22;13225;47.804;12.116;2022-11-12T14:33:27;12.10;99.90
25280;DHT22;13225;47.804;12.116;2022-11-12T14:36:03;11.90;99.90
25280;DHT22;13225;47.804;12.116;2022-11-12T14:38:43;11.80;99.90
25280;DHT22;13225;47.804;12.116;2022-11-12T14:41:39;11.70;99.90
25280;DHT22;13225;47.804;12.116;2022-11-12T14:44:20;11.60;99.90
25280;DHT22;13225;47.804;12.116;2022-11-12T14:46:49;11.40;99.90
25280;DHT22;13225;47.804;12.116;2022-11-12T14:49:43;11.20;99.90
25280;DHT22;13225;47.804;12.116;2022-11-12T14:52:14;11.00;99.90
25280;DHT22;13225;47.804;12.116;2022-11-12T14:54:52;10.80;99.90
25280;DHT22;13225;47.804;12.116;2022-11-12T14:57:26;10.80;99.90
25280;DHT22;13225;47.804;12.116;2022-11-12T14:59:52;10.70;99.90
25280;DHT22;13225;47.804;12.116;2022-11-12T15:02:26;10.70;99.90
25280;DHT22;13225;47.804;12.116;2022-11-12T15:05:18;10.60;99.90
25280;DHT22;13225;47.804;12.116;2022-11-12T15:07:57;10.60;99.90
25280;DHT22;13225;47.804;12.116;2022-11-12T15:13:08;10.40;99.90
25280;DHT22;13225;47.804;12.116;2022-11-12T15:15:36;10.20;99.90
25280;DHT22;13225;47.804;12.116;2022-11-12T15:18:05;10.00;99.90
25280;DHT22;13225;47.804;12.116;2022-11-12T15:20:32;9.80;99.90
25280;DHT22;13225;47.804;12.116;2022-11-12T15:22:57;9.70;99.90
25280;DHT22;13225;47.804;12.116;2022-11-12T15:25:28;9.60;99.90
25280;DHT22;13225;47.804;12.116;2022-11-12T15:27:54;9.50;99.90
25280;DHT22;13225;47.804;12.116;2022-11-12T15:30:26;9.40;99.90
25280;DHT22;13225;47.804;12.116;2022-11-12T15:35:55;9.20;99.90
25280;DHT22;13225;47.804;12.116;2022-11-12T15:38:47;9.00;99.90
25280;DHT22;13225;47.804;12.116;2022-11-12T15:41:43;8.90;99.90
25280;DHT22;13225;47.804;12.116;2022-11-12T15:44:30;8.70;99.90
25280;DHT22;13225;47.804;12.116;2022-11-12T15:47:07;8.60;99.90
25280;DHT22;13225;47.804;12.116;2022-11-12T15:49:46;8.40;99.90
25280;DHT22;13225;47.804;12.116;2022-11-12T15:52:18;8.30;99.90
25280;DHT22;13225;47.804;12.116;2022-11-12T15:55:12;8.20;99.90
25280;DHT22;13225;47.804;12.116;2022-11-12T15:57:50;8.10;99.90
25280;DHT22;13225;47.804;12.116;2022-11-12T16:00:29;8.00;99.90
25280;DHT22;13225;47.804;12.116;2022-11-12T16:03:27;7.90;99.90
25280;DHT22;13225;47.804;12.116;2022-11-12T16:06:03;7.70;99.90
25280;DHT22;13225;47.804;12.116;2022-11-12T16:11:18;7.50;99.90
25280;DHT22;13225;47.804;12.116;2022-11-12T16:14:04;7.40;99.90
25280;DHT22;13225;47.804;12.116;2022-11-12T16:16:45;7.30;99.90
25280;DHT22;13225;47.804;12.116;2022-11-12T16:19:25;7.20;99.90
25280;DHT22;13225;47.804;12.116;2022-11-12T16:21:52;7.10;99.90
25280;DHT22;13225;47.804;12.116;2022-11-12T16:24:29;7.00;99.90
25280;DHT22;13225;47.804;12.116;2022-11-12T16:27:13;6.90;99.90
25280;DHT22;13225;47.804;12.116;2022-11-12T16:29:47;6.90;99.90
25280;DHT22;13225;47.804;12.116;2022-11-12T16:32:24;6.70;99.90
25280;DHT22;13225;47.804;12.116;2022-11-12T16:35:05;6.70;99.90
25280;DHT22;13225;47.804;12.116;2022-11-12T16:37:40;6.70;99.90
25280;DHT22;13225;47.804;12.116;2022-11-12T16:40:24;6.60;99.90
25280;DHT22;13225;47.804;12.116;2022-11-12T16:42:56;6.60;99.90
25280;DHT22;13225;47.804;12.116;2022-11-12T16:45:40;6.60;99.90
25280;DHT22;13225;47.804;12.116;2022-11-12T16:48:19;6.40;99.90
25280;DHT22;13225;47.804;12.116;2022-11-12T16:50:46;6.30;99.90
25280;DHT22;13225;47.804;12.116;2022-11-12T16:53:12;6.30;99.90
25280;DHT22;13225;47.804;12.116;2022-11-12T16:55:37;6.20;99.90
25280;DHT22;13225;47.804;12.116;2022-11-12T16:58:03;6.20;99.90
25280;DHT22;13225;47.804;12.116;2022-11-12T17:00:29;6.20;99.90
25280;DHT22;13225;47.804;12.116;2022-11-12T17:02:54;6.20;99.90
25280;DHT22;13225;47.804;12.116;2022-11-12T17:05:22;6.10;99.90
25280;DHT22;13225;47.804;12.116;2022-11-12T17:07:54;6.00;99.90
25280;DHT22;13225;47.804;12.116;2022-11-12T17:10:20;6.00;99.90
25280;DHT22;13225;47.804;12.116;2022-11-12T17:12:53;5.90;99.90
25280;DHT22;13225;47.804;12.116;2022-11-12T17:15:19;5.80;99.90
25280;DHT22;13225;47.804;12.116;2022-11-12T17:17:45;5.70;99.90
25280;DHT22;13225;47.804;12.116;2022-11-12T17:20:11;5.70;99.90
25280;DHT22;13225;47.804;12.116;2022-11-12T17:22:37;5.70;99.90
25280;DHT22;13225;47.804;12.116;2022-11-12T17:25:04;5.60;99.90
25280;DHT22;13225;47.804;12.116;2022-11-12T17:27:42;5.50;99.90
25280;DHT22;13225;47.804;12.116;2022-11-12T17:30:11;5.40;99.90
25280;DHT22;13225;47.804;12.116;2022-11-12T17:32:36;5.30;99.90
25280;DHT22;13225;47.804;12.116;2022-11-12T17:35:02;5.20;99.90
25280;DHT22;13225;47.804;12.116;2022-11-12T17:37:28;5.20;99.90
25280;DHT22;13225;47.804;12.116;2022-11-12T17:39:54;5.10;99.90
25280;DHT22;13225;47.804;12.116;2022-11-12T17:42:19;5.10;99.90
25280;DHT22;13225;47.804;12.116;2022-11-12T17:44:45;5.00;99.90
25280;DHT22;13225;47.804;12.116;2022-11-12T17:47:13;4.90;99.90
25280;DHT22;13225;47.804;12.116;2022-11-12T17:49:41;4.90;99.90